Terminal Aerodrome Forecast
Issued by NWS

Current Version | Previous Version | Graphics & Text | Print | Product List | Glossary On
Versions: 1 2 3 4 5 6 7 8 9 10 11 12 13 14 15 16 17 18 19 20 21 22 23 24 25 26
000
FTUS41 KPBZ 242300
TAFHLG
TAF
KHLG 242336Z 2500/2524 24010G17KT 3SM -SHSN BR OVC008
      TEMPO 2500/2504 2SM -FZDZSN BR OVC006
     FM251500 VRB04KT 2SM -SN OVC007
     FM252000 VRB03KT 3/4SM -SN OVC004=

USA.gov is the U.S. government's official web portal to all federal, state and local government web resources and services.